sensor_id;sensor_type;location;lat;lon;timestamp;P1;durP1;ratioP1;P2;durP2;ratioP2
1721;SDS011;858;53.190;8.596;2023-05-10T00:01:43;16.17;;;14.23;;
1721;SDS011;858;53.190;8.596;2023-05-10T00:04:11;16.90;;;13.83;;
1721;SDS011;858;53.190;8.596;2023-05-10T00:06:37;15.83;;;13.27;;
1721;SDS011;858;53.190;8.596;2023-05-10T00:09:04;16.70;;;14.20;;
1721;SDS011;858;53.190;8.596;2023-05-10T00:11:30;22.00;;;14.63;;
1721;SDS011;858;53.190;8.596;2023-05-10T00:13:56;16.20;;;13.40;;
1721;SDS011;858;53.190;8.596;2023-05-10T00:16:23;12.80;;;11.27;;
1721;SDS011;858;53.190;8.596;2023-05-10T00:18:49;18.33;;;14.53;;
1721;SDS011;858;53.190;8.596;2023-05-10T00:21:17;15.80;;;13.83;;
1721;SDS011;858;53.190;8.596;2023-05-10T00:23:43;16.43;;;13.50;;
1721;SDS011;858;53.190;8.596;2023-05-10T00:26:10;16.10;;;13.27;;
1721;SDS011;858;53.190;8.596;2023-05-10T00:28:36;15.83;;;13.97;;
1721;SDS011;858;53.190;8.596;2023-05-10T00:31:03;16.67;;;14.10;;
1721;SDS011;858;53.190;8.596;2023-05-10T00:33:29;14.67;;;12.73;;
1721;SDS011;858;53.190;8.596;2023-05-10T00:35:55;16.40;;;14.20;;
1721;SDS011;858;53.190;8.596;2023-05-10T00:38:23;15.27;;;12.90;;
1721;SDS011;858;53.190;8.596;2023-05-10T00:40:49;15.07;;;12.83;;
1721;SDS011;858;53.190;8.596;2023-05-10T00:43:16;14.60;;;12.80;;
1721;SDS011;858;53.190;8.596;2023-05-10T00:45:42;17.50;;;14.13;;
1721;SDS011;858;53.190;8.596;2023-05-10T00:48:09;14.17;;;12.67;;
1721;SDS011;858;53.190;8.596;2023-05-10T00:50:35;20.50;;;15.33;;
1721;SDS011;858;53.190;8.596;2023-05-10T00:53:01;14.87;;;12.30;;
1721;SDS011;858;53.190;8.596;2023-05-10T00:55:29;16.07;;;13.40;;
1721;SDS011;858;53.190;8.596;2023-05-10T00:57:56;17.73;;;14.90;;
1721;SDS011;858;53.190;8.596;2023-05-10T01:00:22;14.03;;;12.57;;
1721;SDS011;858;53.190;8.596;2023-05-10T01:02:49;18.93;;;14.57;;
1721;SDS011;858;53.190;8.596;2023-05-10T01:05:15;15.60;;;13.90;;
1721;SDS011;858;53.190;8.596;2023-05-10T01:07:41;13.13;;;11.67;;
1721;SDS011;858;53.190;8.596;2023-05-10T01:10:08;18.83;;;15.00;;
1721;SDS011;858;53.190;8.596;2023-05-10T01:12:38;25.03;;;16.93;;
1721;SDS011;858;53.190;8.596;2023-05-10T01:15:05;18.50;;;16.40;;
1721;SDS011;858;53.190;8.596;2023-05-10T01:17:32;22.40;;;15.87;;
1721;SDS011;858;53.190;8.596;2023-05-10T01:19:59;19.70;;;16.10;;
1721;SDS011;858;53.190;8.596;2023-05-10T01:22:32;20.70;;;16.33;;
1721;SDS011;858;53.190;8.596;2023-05-10T01:25:18;15.50;;;13.67;;
1721;SDS011;858;53.190;8.596;2023-05-10T01:28:05;16.43;;;13.90;;
1721;SDS011;858;53.190;8.596;2023-05-10T01:30:35;18.00;;;15.03;;
1721;SDS011;858;53.190;8.596;2023-05-10T01:33:09;19.37;;;14.40;;
1721;SDS011;858;53.190;8.596;2023-05-10T01:35:37;17.33;;;13.40;;
1721;SDS011;858;53.190;8.596;2023-05-10T01:38:07;16.70;;;14.90;;
1721;SDS011;858;53.190;8.596;2023-05-10T01:40:37;17.03;;;11.63;;
1721;SDS011;858;53.190;8.596;2023-05-10T01:43:10;12.77;;;11.33;;
1721;SDS011;858;53.190;8.596;2023-05-10T01:45:39;12.23;;;10.13;;
1721;SDS011;858;53.190;8.596;2023-05-10T01:48:11;13.50;;;10.50;;
1721;SDS011;858;53.190;8.596;2023-05-10T01:50:38;12.60;;;10.07;;
1721;SDS011;858;53.190;8.596;2023-05-10T01:53:06;9.67;;;8.73;;
1721;SDS011;858;53.190;8.596;2023-05-10T01:55:34;12.53;;;10.60;;
1721;SDS011;858;53.190;8.596;2023-05-10T01:58:02;10.37;;;9.37;;
1721;SDS011;858;53.190;8.596;2023-05-10T02:00:29;11.00;;;9.90;;
1721;SDS011;858;53.190;8.596;2023-05-10T02:02:57;11.40;;;10.20;;
1721;SDS011;858;53.190;8.596;2023-05-10T02:05:25;11.27;;;10.13;;
1721;SDS011;858;53.190;8.596;2023-05-10T02:07:52;12.57;;;10.47;;
1721;SDS011;858;53.190;8.596;2023-05-10T02:10:19;11.67;;;10.37;;
1721;SDS011;858;53.190;8.596;2023-05-10T02:12:47;13.73;;;10.07;;
1721;SDS011;858;53.190;8.596;2023-05-10T02:15:16;12.97;;;10.30;;
1721;SDS011;858;53.190;8.596;2023-05-10T02:17:44;11.53;;;9.17;;
1721;SDS011;858;53.190;8.596;2023-05-10T02:20:12;10.37;;;9.27;;
1721;SDS011;858;53.190;8.596;2023-05-10T02:22:41;9.70;;;8.37;;
1721;SDS011;858;53.190;8.596;2023-05-10T02:25:08;10.13;;;9.13;;
1721;SDS011;858;53.190;8.596;2023-05-10T02:27:34;13.77;;;8.60;;
1721;SDS011;858;53.190;8.596;2023-05-10T02:30:02;8.80;;;8.00;;
1721;SDS011;858;53.190;8.596;2023-05-10T02:32:29;10.20;;;8.80;;
1721;SDS011;858;53.190;8.596;2023-05-10T02:34:56;9.43;;;8.23;;
1721;SDS011;858;53.190;8.596;2023-05-10T02:37:23;10.60;;;9.50;;
1721;SDS011;858;53.190;8.596;2023-05-10T02:39:52;9.97;;;8.90;;
1721;SDS011;858;53.190;8.596;2023-05-10T02:42:20;13.13;;;8.67;;
1721;SDS011;858;53.190;8.596;2023-05-10T02:44:50;12.23;;;9.77;;
1721;SDS011;858;53.190;8.596;2023-05-10T02:47:17;11.77;;;9.33;;
1721;SDS011;858;53.190;8.596;2023-05-10T02:49:44;14.63;;;9.17;;
1721;SDS011;858;53.190;8.596;2023-05-10T02:52:10;10.80;;;9.20;;
1721;SDS011;858;53.190;8.596;2023-05-10T02:54:39;9.07;;;8.03;;
1721;SDS011;858;53.190;8.596;2023-05-10T02:57:08;11.30;;;9.00;;
1721;SDS011;858;53.190;8.596;2023-05-10T02:59:36;10.73;;;9.17;;
1721;SDS011;858;53.190;8.596;2023-05-10T03:02:03;10.97;;;9.23;;
1721;SDS011;858;53.190;8.596;2023-05-10T03:04:29;11.20;;;9.10;;
1721;SDS011;858;53.190;8.596;2023-05-10T03:06:56;10.70;;;9.00;;
1721;SDS011;858;53.190;8.596;2023-05-10T03:09:22;12.47;;;8.33;;
1721;SDS011;858;53.190;8.596;2023-05-10T03:11:50;10.00;;;8.73;;
1721;SDS011;858;53.190;8.596;2023-05-10T03:14:24;11.83;;;9.67;;
1721;SDS011;858;53.190;8.596;2023-05-10T03:16:56;8.87;;;7.77;;
1721;SDS011;858;53.190;8.596;2023-05-10T03:19:26;9.77;;;7.93;;
1721;SDS011;858;53.190;8.596;2023-05-10T03:21:53;9.50;;;8.57;;
1721;SDS011;858;53.190;8.596;2023-05-10T03:24:22;9.60;;;8.20;;
1721;SDS011;858;53.190;8.596;2023-05-10T03:26:49;10.50;;;8.50;;
1721;SDS011;858;53.190;8.596;2023-05-10T03:29:16;9.83;;;8.57;;
1721;SDS011;858;53.190;8.596;2023-05-10T03:31:44;9.97;;;8.93;;
1721;SDS011;858;53.190;8.596;2023-05-10T03:34:11;10.53;;;8.50;;
1721;SDS011;858;53.190;8.596;2023-05-10T03:36:37;11.00;;;7.60;;
1721;SDS011;858;53.190;8.596;2023-05-10T03:39:03;10.93;;;8.70;;
1721;SDS011;858;53.190;8.596;2023-05-10T03:41:30;9.67;;;8.37;;
1721;SDS011;858;53.190;8.596;2023-05-10T03:43:56;10.40;;;8.80;;
1721;SDS011;858;53.190;8.596;2023-05-10T03:46:22;8.70;;;7.80;;
1721;SDS011;858;53.190;8.596;2023-05-10T03:48:50;8.73;;;7.90;;
1721;SDS011;858;53.190;8.596;2023-05-10T03:51:16;9.90;;;8.00;;
1721;SDS011;858;53.190;8.596;2023-05-10T03:53:43;9.60;;;8.60;;
1721;SDS011;858;53.190;8.596;2023-05-10T03:56:09;11.07;;;8.93;;
1721;SDS011;858;53.190;8.596;2023-05-10T03:58:36;9.03;;;8.13;;
1721;SDS011;858;53.190;8.596;2023-05-10T04:01:02;9.60;;;7.90;;
1721;SDS011;858;53.190;8.596;2023-05-10T04:03:29;12.77;;;8.73;;
1721;SDS011;858;53.190;8.596;2023-05-10T04:06:00;10.80;;;8.43;;
1721;SDS011;858;53.190;8.596;2023-05-10T04:08:26;11.23;;;9.10;;
1721;SDS011;858;53.190;8.596;2023-05-10T04:10:53;13.00;;;9.03;;
1721;SDS011;858;53.190;8.596;2023-05-10T04:13:19;10.70;;;8.90;;
1721;SDS011;858;53.190;8.596;2023-05-10T04:15:46;12.47;;;9.33;;
1721;SDS011;858;53.190;8.596;2023-05-10T04:18:12;12.77;;;8.50;;
1721;SDS011;858;53.190;8.596;2023-05-10T04:20:38;13.47;;;9.40;;
1721;SDS011;858;53.190;8.596;2023-05-10T04:23:06;12.33;;;9.20;;
1721;SDS011;858;53.190;8.596;2023-05-10T04:25:33;12.83;;;9.30;;
1721;SDS011;858;53.190;8.596;2023-05-10T04:28:00;11.57;;;10.47;;
1721;SDS011;858;53.190;8.596;2023-05-10T04:30:26;10.70;;;8.90;;
1721;SDS011;858;53.190;8.596;2023-05-10T04:32:54;10.60;;;9.17;;
1721;SDS011;858;53.190;8.596;2023-05-10T04:35:20;16.20;;;10.10;;
1721;SDS011;858;53.190;8.596;2023-05-10T04:37:47;13.23;;;9.90;;
1721;SDS011;858;53.190;8.596;2023-05-10T04:40:14;13.63;;;10.20;;
1721;SDS011;858;53.190;8.596;2023-05-10T04:42:41;11.10;;;9.37;;
1721;SDS011;858;53.190;8.596;2023-05-10T04:45:07;11.07;;;9.07;;
1721;SDS011;858;53.190;8.596;2023-05-10T04:47:34;13.13;;;10.87;;
1721;SDS011;858;53.190;8.596;2023-05-10T04:50:02;14.47;;;8.80;;
1721;SDS011;858;53.190;8.596;2023-05-10T04:52:28;12.53;;;9.70;;
1721;SDS011;858;53.190;8.596;2023-05-10T04:54:54;11.20;;;9.07;;
1721;SDS011;858;53.190;8.596;2023-05-10T04:57:22;9.07;;;8.10;;
1721;SDS011;858;53.190;8.596;2023-05-10T04:59:48;9.53;;;8.37;;
1721;SDS011;858;53.190;8.596;2023-05-10T05:02:15;12.57;;;8.63;;
1721;SDS011;858;53.190;8.596;2023-05-10T05:04:41;11.20;;;8.80;;
1721;SDS011;858;53.190;8.596;2023-05-10T05:07:07;11.87;;;9.23;;
1721;SDS011;858;53.190;8.596;2023-05-10T05:09:34;13.33;;;9.70;;
1721;SDS011;858;53.190;8.596;2023-05-10T05:12:00;9.77;;;8.77;;
1721;SDS011;858;53.190;8.596;2023-05-10T05:14:28;14.03;;;9.70;;
1721;SDS011;858;53.190;8.596;2023-05-10T05:16:54;10.67;;;8.77;;
1721;SDS011;858;53.190;8.596;2023-05-10T05:19:20;13.40;;;9.87;;
1721;SDS011;858;53.190;8.596;2023-05-10T05:21:47;11.77;;;9.37;;
1721;SDS011;858;53.190;8.596;2023-05-10T05:24:13;12.60;;;9.03;;
1721;SDS011;858;53.190;8.596;2023-05-10T05:26:40;12.20;;;10.93;;
1721;SDS011;858;53.190;8.596;2023-05-10T05:29:06;10.07;;;8.60;;
1721;SDS011;858;53.190;8.596;2023-05-10T05:31:34;12.93;;;10.50;;
1721;SDS011;858;53.190;8.596;2023-05-10T05:34:00;12.23;;;10.67;;
1721;SDS011;858;53.190;8.596;2023-05-10T05:36:26;13.50;;;10.17;;
1721;SDS011;858;53.190;8.596;2023-05-10T05:38:53;12.23;;;9.50;;
1721;SDS011;858;53.190;8.596;2023-05-10T05:41:19;13.90;;;9.70;;
1721;SDS011;858;53.190;8.596;2023-05-10T05:43:46;11.90;;;10.70;;
1721;SDS011;858;53.190;8.596;2023-05-10T05:46:12;11.00;;;9.90;;
1721;SDS011;858;53.190;8.596;2023-05-10T05:48:40;14.50;;;10.30;;
1721;SDS011;858;53.190;8.596;2023-05-10T05:51:06;13.43;;;10.27;;
1721;SDS011;858;53.190;8.596;2023-05-10T05:53:33;15.33;;;11.97;;
1721;SDS011;858;53.190;8.596;2023-05-10T05:55:59;16.20;;;11.07;;
1721;SDS011;858;53.190;8.596;2023-05-10T05:58:25;14.43;;;11.97;;
1721;SDS011;858;53.190;8.596;2023-05-10T06:00:52;19.37;;;9.70;;
1721;SDS011;858;53.190;8.596;2023-05-10T06:03:18;14.13;;;10.83;;
1721;SDS011;858;53.190;8.596;2023-05-10T06:05:46;15.33;;;11.27;;
1721;SDS011;858;53.190;8.596;2023-05-10T06:08:12;14.00;;;11.00;;
1721;SDS011;858;53.190;8.596;2023-05-10T06:10:38;14.50;;;11.93;;
1721;SDS011;858;53.190;8.596;2023-05-10T06:13:05;13.30;;;11.73;;
1721;SDS011;858;53.190;8.596;2023-05-10T06:15:31;12.93;;;11.50;;
1721;SDS011;858;53.190;8.596;2023-05-10T06:17:58;13.93;;;12.43;;
1721;SDS011;858;53.190;8.596;2023-05-10T06:20:25;16.60;;;13.00;;
1721;SDS011;858;53.190;8.596;2023-05-10T06:22:52;15.33;;;11.90;;
1721;SDS011;858;53.190;8.596;2023-05-10T06:25:19;15.80;;;12.20;;
1721;SDS011;858;53.190;8.596;2023-05-10T06:27:45;15.23;;;12.30;;
1721;SDS011;858;53.190;8.596;2023-05-10T06:30:12;12.90;;;11.70;;
1721;SDS011;858;53.190;8.596;2023-05-10T06:32:40;17.03;;;11.10;;
1721;SDS011;858;53.190;8.596;2023-05-10T06:35:07;17.27;;;11.03;;
1721;SDS011;858;53.190;8.596;2023-05-10T06:37:33;15.70;;;12.40;;
1721;SDS011;858;53.190;8.596;2023-05-10T06:40:01;15.70;;;13.33;;
1721;SDS011;858;53.190;8.596;2023-05-10T06:42:28;15.63;;;11.40;;
1721;SDS011;858;53.190;8.596;2023-05-10T06:44:55;13.13;;;10.67;;
1721;SDS011;858;53.190;8.596;2023-05-10T06:47:21;12.40;;;10.37;;
1721;SDS011;858;53.190;8.596;2023-05-10T06:49:47;14.63;;;11.67;;
1721;SDS011;858;53.190;8.596;2023-05-10T06:52:14;12.80;;;11.03;;
1721;SDS011;858;53.190;8.596;2023-05-10T06:54:40;14.03;;;10.07;;
1721;SDS011;858;53.190;8.596;2023-05-10T06:57:08;12.40;;;11.10;;
1721;SDS011;858;53.190;8.596;2023-05-10T06:59:34;11.60;;;9.90;;
1721;SDS011;858;53.190;8.596;2023-05-10T07:02:01;10.23;;;9.17;;
1721;SDS011;858;53.190;8.596;2023-05-10T07:04:27;11.30;;;9.53;;
1721;SDS011;858;53.190;8.596;2023-05-10T07:06:53;11.83;;;9.37;;
1721;SDS011;858;53.190;8.596;2023-05-10T07:09:20;12.20;;;10.23;;
1721;SDS011;858;53.190;8.596;2023-05-10T07:11:46;11.00;;;9.40;;
1721;SDS011;858;53.190;8.596;2023-05-10T07:14:14;10.83;;;8.70;;
1721;SDS011;858;53.190;8.596;2023-05-10T07:16:40;7.33;;;6.33;;
1721;SDS011;858;53.190;8.596;2023-05-10T07:19:07;7.20;;;6.20;;
1721;SDS011;858;53.190;8.596;2023-05-10T07:21:34;5.43;;;4.87;;
1721;SDS011;858;53.190;8.596;2023-05-10T07:24:00;6.33;;;4.80;;
1721;SDS011;858;53.190;8.596;2023-05-10T07:26:26;7.17;;;6.30;;
1721;SDS011;858;53.190;8.596;2023-05-10T07:28:53;7.73;;;6.33;;
1721;SDS011;858;53.190;8.596;2023-05-10T07:31:21;10.50;;;6.07;;
1721;SDS011;858;53.190;8.596;2023-05-10T07:33:47;6.23;;;5.37;;
1721;SDS011;858;53.190;8.596;2023-05-10T07:36:13;9.00;;;7.40;;
1721;SDS011;858;53.190;8.596;2023-05-10T07:38:40;9.27;;;7.10;;
1721;SDS011;858;53.190;8.596;2023-05-10T07:41:06;6.60;;;5.93;;
1721;SDS011;858;53.190;8.596;2023-05-10T07:43:32;7.77;;;6.33;;
1721;SDS011;858;53.190;8.596;2023-05-10T07:45:59;8.20;;;6.90;;
1721;SDS011;858;53.190;8.596;2023-05-10T07:48:27;13.10;;;7.10;;
1721;SDS011;858;53.190;8.596;2023-05-10T07:50:53;9.57;;;7.67;;
1721;SDS011;858;53.190;8.596;2023-05-10T07:53:19;9.63;;;7.73;;
1721;SDS011;858;53.190;8.596;2023-05-10T07:55:49;8.20;;;7.00;;
1721;SDS011;858;53.190;8.596;2023-05-10T07:58:15;9.50;;;7.20;;
1721;SDS011;858;53.190;8.596;2023-05-10T08:00:42;9.60;;;6.80;;
1721;SDS011;858;53.190;8.596;2023-05-10T08:03:08;7.60;;;6.17;;
1721;SDS011;858;53.190;8.596;2023-05-10T08:05:36;8.93;;;6.20;;
1721;SDS011;858;53.190;8.596;2023-05-10T08:08:02;7.67;;;6.27;;
1721;SDS011;858;53.190;8.596;2023-05-10T08:10:28;6.77;;;5.53;;
1721;SDS011;858;53.190;8.596;2023-05-10T08:12:55;7.03;;;6.03;;
1721;SDS011;858;53.190;8.596;2023-05-10T08:15:21;8.33;;;6.20;;
1721;SDS011;858;53.190;8.596;2023-05-10T08:17:48;7.57;;;6.30;;
1721;SDS011;858;53.190;8.596;2023-05-10T08:20:14;7.30;;;5.80;;
1721;SDS011;858;53.190;8.596;2023-05-10T08:22:44;9.83;;;7.20;;
1721;SDS011;858;53.190;8.596;2023-05-10T08:25:10;10.07;;;7.70;;
1721;SDS011;858;53.190;8.596;2023-05-10T08:27:37;8.53;;;6.80;;
1721;SDS011;858;53.190;8.596;2023-05-10T08:30:03;9.53;;;7.33;;
1721;SDS011;858;53.190;8.596;2023-05-10T08:32:30;11.73;;;7.30;;
1721;SDS011;858;53.190;8.596;2023-05-10T08:34:56;9.30;;;6.70;;
1721;SDS011;858;53.190;8.596;2023-05-10T08:37:22;9.07;;;7.83;;
1721;SDS011;858;53.190;8.596;2023-05-10T08:39:50;8.97;;;6.80;;
1721;SDS011;858;53.190;8.596;2023-05-10T08:42:17;9.63;;;7.23;;
1721;SDS011;858;53.190;8.596;2023-05-10T08:44:45;9.10;;;6.23;;
1721;SDS011;858;53.190;8.596;2023-05-10T08:47:12;8.70;;;7.17;;
1721;SDS011;858;53.190;8.596;2023-05-10T08:49:40;5.83;;;5.10;;
1721;SDS011;858;53.190;8.596;2023-05-10T08:52:07;6.03;;;4.60;;
1721;SDS011;858;53.190;8.596;2023-05-10T08:57:03;5.27;;;3.97;;
1721;SDS011;858;53.190;8.596;2023-05-10T08:59:29;6.10;;;4.67;;
1721;SDS011;858;53.190;8.596;2023-05-10T09:01:56;5.43;;;4.70;;
1721;SDS011;858;53.190;8.596;2023-05-10T09:04:23;5.80;;;3.67;;
1721;SDS011;858;53.190;8.596;2023-05-10T09:06:50;4.80;;;4.17;;
1721;SDS011;858;53.190;8.596;2023-05-10T09:09:16;9.50;;;4.10;;
1721;SDS011;858;53.190;8.596;2023-05-10T09:11:43;5.30;;;4.00;;
1721;SDS011;858;53.190;8.596;2023-05-10T09:14:11;5.10;;;3.07;;
1721;SDS011;858;53.190;8.596;2023-05-10T09:16:40;6.13;;;4.43;;
1721;SDS011;858;53.190;8.596;2023-05-10T09:19:07;5.00;;;4.03;;
1721;SDS011;858;53.190;8.596;2023-05-10T09:21:35;6.23;;;4.20;;
1721;SDS011;858;53.190;8.596;2023-05-10T09:24:03;4.70;;;3.73;;
1721;SDS011;858;53.190;8.596;2023-05-10T09:26:29;4.40;;;3.20;;
1721;SDS011;858;53.190;8.596;2023-05-10T09:28:56;4.87;;;2.90;;
1721;SDS011;858;53.190;8.596;2023-05-10T09:31:25;3.23;;;2.30;;
1721;SDS011;858;53.190;8.596;2023-05-10T09:34:08;2.77;;;2.57;;
1721;SDS011;858;53.190;8.596;2023-05-10T09:36:35;3.27;;;2.97;;
1721;SDS011;858;53.190;8.596;2023-05-10T09:39:02;5.33;;;2.83;;
1721;SDS011;858;53.190;8.596;2023-05-10T09:41:28;3.87;;;2.87;;
1721;SDS011;858;53.190;8.596;2023-05-10T09:43:55;6.87;;;4.80;;
1721;SDS011;858;53.190;8.596;2023-05-10T09:46:23;7.70;;;5.33;;
1721;SDS011;858;53.190;8.596;2023-05-10T09:48:51;5.27;;;4.10;;
1721;SDS011;858;53.190;8.596;2023-05-10T09:51:20;4.00;;;3.33;;
1721;SDS011;858;53.190;8.596;2023-05-10T09:53:47;5.73;;;3.10;;
1721;SDS011;858;53.190;8.596;2023-05-10T09:56:20;4.33;;;3.30;;
1721;SDS011;858;53.190;8.596;2023-05-10T09:59:01;3.37;;;3.07;;
1721;SDS011;858;53.190;8.596;2023-05-10T10:01:28;4.30;;;3.30;;
1721;SDS011;858;53.190;8.596;2023-05-10T10:03:56;6.07;;;3.60;;
1721;SDS011;858;53.190;8.596;2023-05-10T10:06:23;4.30;;;3.70;;
1721;SDS011;858;53.190;8.596;2023-05-10T10:08:50;7.80;;;4.60;;
1721;SDS011;858;53.190;8.596;2023-05-10T10:11:16;3.53;;;3.20;;
1721;SDS011;858;53.190;8.596;2023-05-10T10:13:43;3.03;;;2.73;;
1721;SDS011;858;53.190;8.596;2023-05-10T10:16:09;5.40;;;4.60;;
1721;SDS011;858;53.190;8.596;2023-05-10T10:18:36;5.67;;;4.13;;
1721;SDS011;858;53.190;8.596;2023-05-10T10:21:05;4.90;;;4.40;;
1721;SDS011;858;53.190;8.596;2023-05-10T10:23:31;6.47;;;4.07;;
1721;SDS011;858;53.190;8.596;2023-05-10T10:25:57;3.60;;;3.13;;
1721;SDS011;858;53.190;8.596;2023-05-10T10:28:26;6.00;;;3.73;;
1721;SDS011;858;53.190;8.596;2023-05-10T10:30:59;5.13;;;3.53;;
1721;SDS011;858;53.190;8.596;2023-05-10T10:33:33;5.67;;;4.70;;
1721;SDS011;858;53.190;8.596;2023-05-10T10:36:02;5.20;;;3.77;;
1721;SDS011;858;53.190;8.596;2023-05-10T10:41:27;4.10;;;3.67;;
1721;SDS011;858;53.190;8.596;2023-05-10T10:46:34;4.73;;;3.73;;
1721;SDS011;858;53.190;8.596;2023-05-10T10:49:21;5.30;;;4.00;;
1721;SDS011;858;53.190;8.596;2023-05-10T10:54:30;5.40;;;4.90;;
1721;SDS011;858;53.190;8.596;2023-05-10T10:57:12;4.03;;;3.43;;
1721;SDS011;858;53.190;8.596;2023-05-10T10:59:41;4.37;;;3.60;;
1721;SDS011;858;53.190;8.596;2023-05-10T11:02:08;5.10;;;3.53;;
1721;SDS011;858;53.190;8.596;2023-05-10T11:04:41;4.70;;;3.67;;
1721;SDS011;858;53.190;8.596;2023-05-10T11:07:17;4.60;;;4.13;;
1721;SDS011;858;53.190;8.596;2023-05-10T11:09:45;7.00;;;3.83;;
1721;SDS011;858;53.190;8.596;2023-05-10T11:12:16;5.37;;;4.47;;
1721;SDS011;858;53.190;8.596;2023-05-10T11:14:42;9.97;;;5.27;;
1721;SDS011;858;53.190;8.596;2023-05-10T11:17:24;5.57;;;4.90;;
1721;SDS011;858;53.190;8.596;2023-05-10T11:20:06;3.00;;;2.70;;
1721;SDS011;858;53.190;8.596;2023-05-10T11:22:48;3.30;;;2.93;;
1721;SDS011;858;53.190;8.596;2023-05-10T11:25:16;3.90;;;3.20;;
1721;SDS011;858;53.190;8.596;2023-05-10T11:27:45;2.60;;;2.40;;
1721;SDS011;858;53.190;8.596;2023-05-10T11:30:14;2.10;;;2.00;;
1721;SDS011;858;53.190;8.596;2023-05-10T11:32:40;1.80;;;1.70;;
1721;SDS011;858;53.190;8.596;2023-05-10T11:35:07;1.67;;;1.57;;
1721;SDS011;858;53.190;8.596;2023-05-10T11:37:35;2.07;;;1.93;;
1721;SDS011;858;53.190;8.596;2023-05-10T11:40:01;1.30;;;1.20;;
1721;SDS011;858;53.190;8.596;2023-05-10T11:42:28;2.20;;;1.50;;
1721;SDS011;858;53.190;8.596;2023-05-10T11:44:56;1.50;;;1.40;;
1721;SDS011;858;53.190;8.596;2023-05-10T11:47:22;1.70;;;1.60;;
1721;SDS011;858;53.190;8.596;2023-05-10T11:49:49;0.90;;;0.90;;
1721;SDS011;858;53.190;8.596;2023-05-10T11:52:17;0.90;;;0.90;;
1721;SDS011;858;53.190;8.596;2023-05-10T11:54:45;1.00;;;0.90;;
1721;SDS011;858;53.190;8.596;2023-05-10T11:57:12;0.60;;;0.60;;
1721;SDS011;858;53.190;8.596;2023-05-10T11:59:38;0.80;;;0.80;;
1721;SDS011;858;53.190;8.596;2023-05-10T12:02:06;0.67;;;0.67;;
1721;SDS011;858;53.190;8.596;2023-05-10T12:04:33;3.00;;;0.70;;
1721;SDS011;858;53.190;8.596;2023-05-10T12:07:00;0.83;;;0.73;;
1721;SDS011;858;53.190;8.596;2023-05-10T12:09:27;0.77;;;0.77;;
1721;SDS011;858;53.190;8.596;2023-05-10T12:11:55;0.73;;;0.73;;
1721;SDS011;858;53.190;8.596;2023-05-10T12:14:22;0.80;;;0.80;;
1721;SDS011;858;53.190;8.596;2023-05-10T12:16:49;1.20;;;1.10;;
1721;SDS011;858;53.190;8.596;2023-05-10T12:19:19;1.07;;;1.07;;
1721;SDS011;858;53.190;8.596;2023-05-10T12:21:46;1.50;;;1.37;;
1721;SDS011;858;53.190;8.596;2023-05-10T12:24:13;1.20;;;1.17;;
1721;SDS011;858;53.190;8.596;2023-05-10T12:26:41;1.37;;;1.27;;
1721;SDS011;858;53.190;8.596;2023-05-10T12:29:14;1.40;;;1.30;;
1721;SDS011;858;53.190;8.596;2023-05-10T12:31:54;4.33;;;1.60;;
1721;SDS011;858;53.190;8.596;2023-05-10T12:34:37;2.47;;;2.27;;
1721;SDS011;858;53.190;8.596;2023-05-10T12:37:04;3.20;;;2.80;;
1721;SDS011;858;53.190;8.596;2023-05-10T12:39:38;6.20;;;3.53;;
1721;SDS011;858;53.190;8.596;2023-05-10T12:42:04;3.27;;;2.97;;
1721;SDS011;858;53.190;8.596;2023-05-10T12:44:31;2.90;;;2.70;;
1721;SDS011;858;53.190;8.596;2023-05-10T12:46:58;4.10;;;3.20;;
1721;SDS011;858;53.190;8.596;2023-05-10T12:49:25;4.10;;;3.70;;
1721;SDS011;858;53.190;8.596;2023-05-10T12:51:52;3.83;;;3.40;;
1721;SDS011;858;53.190;8.596;2023-05-10T12:54:19;4.97;;;4.47;;
1721;SDS011;858;53.190;8.596;2023-05-10T12:56:45;6.80;;;5.73;;
1721;SDS011;858;53.190;8.596;2023-05-10T12:59:12;7.90;;;6.43;;
1721;SDS011;858;53.190;8.596;2023-05-10T13:01:38;10.57;;;7.30;;
1721;SDS011;858;53.190;8.596;2023-05-10T13:04:05;9.37;;;6.77;;
1721;SDS011;858;53.190;8.596;2023-05-10T13:06:31;9.67;;;8.13;;
1721;SDS011;858;53.190;8.596;2023-05-10T13:09:00;7.87;;;7.17;;
1721;SDS011;858;53.190;8.596;2023-05-10T13:11:26;8.67;;;7.50;;
1721;SDS011;858;53.190;8.596;2023-05-10T13:13:55;10.30;;;8.77;;
1721;SDS011;858;53.190;8.596;2023-05-10T13:16:21;6.40;;;5.80;;
1721;SDS011;858;53.190;8.596;2023-05-10T13:18:48;8.10;;;7.30;;
1721;SDS011;858;53.190;8.596;2023-05-10T13:21:14;8.43;;;6.40;;
1721;SDS011;858;53.190;8.596;2023-05-10T13:23:41;8.93;;;7.70;;
1721;SDS011;858;53.190;8.596;2023-05-10T13:26:11;13.80;;;8.27;;
1721;SDS011;858;53.190;8.596;2023-05-10T13:28:38;8.10;;;7.30;;
1721;SDS011;858;53.190;8.596;2023-05-10T13:31:04;7.70;;;7.00;;
1721;SDS011;858;53.190;8.596;2023-05-10T13:33:30;8.23;;;7.20;;
1721;SDS011;858;53.190;8.596;2023-05-10T13:35:57;7.60;;;6.90;;
1721;SDS011;858;53.190;8.596;2023-05-10T13:38:23;8.47;;;7.23;;
1721;SDS011;858;53.190;8.596;2023-05-10T13:40:49;9.00;;;7.40;;
1721;SDS011;858;53.190;8.596;2023-05-10T13:43:19;11.50;;;6.67;;
1721;SDS011;858;53.190;8.596;2023-05-10T13:45:45;7.77;;;6.60;;
1721;SDS011;858;53.190;8.596;2023-05-10T13:48:12;7.30;;;6.60;;
1721;SDS011;858;53.190;8.596;2023-05-10T13:50:38;6.90;;;6.20;;
1721;SDS011;858;53.190;8.596;2023-05-10T13:53:05;6.77;;;6.07;;
1721;SDS011;858;53.190;8.596;2023-05-10T13:55:32;6.80;;;5.73;;
1721;SDS011;858;53.190;8.596;2023-05-10T13:57:58;5.43;;;4.87;;
1721;SDS011;858;53.190;8.596;2023-05-10T14:00:26;5.23;;;4.70;;
1721;SDS011;858;53.190;8.596;2023-05-10T14:02:53;5.30;;;4.70;;
1721;SDS011;858;53.190;8.596;2023-05-10T14:05:19;5.53;;;4.70;;
1721;SDS011;858;53.190;8.596;2023-05-10T14:07:46;5.37;;;4.57;;
1721;SDS011;858;53.190;8.596;2023-05-10T14:10:12;6.43;;;4.33;;
1721;SDS011;858;53.190;8.596;2023-05-10T14:12:38;7.20;;;5.60;;
1721;SDS011;858;53.190;8.596;2023-05-10T14:15:05;5.80;;;5.20;;
1721;SDS011;858;53.190;8.596;2023-05-10T14:17:33;5.40;;;4.80;;
1721;SDS011;858;53.190;8.596;2023-05-10T14:20:00;7.50;;;5.10;;
1721;SDS011;858;53.190;8.596;2023-05-10T14:22:26;6.70;;;5.30;;
1721;SDS011;858;53.190;8.596;2023-05-10T14:24:53;7.10;;;5.20;;
1721;SDS011;858;53.190;8.596;2023-05-10T14:27:20;4.87;;;4.13;;
1721;SDS011;858;53.190;8.596;2023-05-10T14:29:46;8.90;;;4.73;;
1721;SDS011;858;53.190;8.596;2023-05-10T14:32:13;4.23;;;2.90;;
1721;SDS011;858;53.190;8.596;2023-05-10T14:34:41;3.30;;;3.00;;
1721;SDS011;858;53.190;8.596;2023-05-10T14:37:09;2.57;;;2.37;;
1721;SDS011;858;53.190;8.596;2023-05-10T14:39:36;2.93;;;2.60;;
1721;SDS011;858;53.190;8.596;2023-05-10T14:42:02;2.90;;;2.50;;
1721;SDS011;858;53.190;8.596;2023-05-10T14:44:29;2.90;;;2.33;;
1721;SDS011;858;53.190;8.596;2023-05-10T14:46:55;2.53;;;1.70;;
1721;SDS011;858;53.190;8.596;2023-05-10T14:49:22;2.87;;;2.67;;
1721;SDS011;858;53.190;8.596;2023-05-10T14:51:52;4.43;;;2.50;;
1721;SDS011;858;53.190;8.596;2023-05-10T14:54:18;3.00;;;2.70;;
1721;SDS011;858;53.190;8.596;2023-05-10T14:56:44;3.33;;;2.70;;
1721;SDS011;858;53.190;8.596;2023-05-10T14:59:13;3.10;;;2.80;;
1721;SDS011;858;53.190;8.596;2023-05-10T15:01:40;3.60;;;3.17;;
1721;SDS011;858;53.190;8.596;2023-05-10T15:04:07;4.00;;;2.97;;
1721;SDS011;858;53.190;8.596;2023-05-10T15:06:33;4.40;;;2.90;;
1721;SDS011;858;53.190;8.596;2023-05-10T15:09:02;6.73;;;3.77;;
1721;SDS011;858;53.190;8.596;2023-05-10T15:11:28;3.90;;;3.17;;
1721;SDS011;858;53.190;8.596;2023-05-10T15:13:55;3.47;;;3.17;;
1721;SDS011;858;53.190;8.596;2023-05-10T15:16:21;3.53;;;3.23;;
1721;SDS011;858;53.190;8.596;2023-05-10T15:18:47;4.00;;;3.60;;
1721;SDS011;858;53.190;8.596;2023-05-10T15:21:14;3.23;;;2.93;;
1721;SDS011;858;53.190;8.596;2023-05-10T15:23:40;5.33;;;3.27;;
1721;SDS011;858;53.190;8.596;2023-05-10T15:26:08;4.73;;;3.87;;
1721;SDS011;858;53.190;8.596;2023-05-10T15:28:35;4.30;;;3.00;;
1721;SDS011;858;53.190;8.596;2023-05-10T15:31:01;4.13;;;3.40;;
1721;SDS011;858;53.190;8.596;2023-05-10T15:33:27;6.60;;;3.20;;